createdAt,value
2022-07-31T00:00:17.094Z,84.36
2022-07-31T00:04:18.583Z,83.93
2022-07-31T00:08:20.103Z,84.31
2022-07-31T00:12:22.229Z,85.20
2022-07-31T00:16:23.695Z,85.91
2022-07-31T00:20:25.215Z,86.24
2022-07-31T00:24:27.017Z,87.23
2022-07-31T00:28:31.642Z,87.27
2022-07-31T00:32:33.251Z,87.50
2022-07-31T00:36:34.758Z,88.34
2022-07-31T00:40:36.343Z,89.09
2022-07-31T00:44:38.528Z,90.00
2022-07-31T00:48:40.139Z,91.51
2022-07-31T00:52:41.922Z,91.94
2022-07-31T00:56:43.482Z,93.18
2022-07-31T01:00:45.153Z,93.60
2022-07-31T01:04:46.650Z,94.84
2022-07-31T01:08:48.457Z,96.22
2022-07-31T01:12:56.649Z,95.92
2022-07-31T01:17:00.331Z,96.04
2022-07-31T01:21:08.660Z,94.62
2022-07-31T01:25:30.026Z,95.29
2022-07-31T01:29:46.253Z,95.51
2022-07-31T01:33:57.457Z,95.64
2022-07-31T01:38:17.147Z,96.39
2022-07-31T01:42:20.588Z,98.23
2022-07-31T01:46:24.965Z,100.00
2022-07-31T01:50:42.633Z,100.00
2022-07-31T01:54:47.436Z,100.00
2022-07-31T01:58:50.454Z,100.00
2022-07-31T02:02:54.410Z,100.00
2022-07-31T02:06:56.840Z,100.00
2022-07-31T02:11:01.114Z,100.00
2022-07-31T02:15:14.633Z,100.00
2022-07-31T02:19:17.376Z,99.94
2022-07-31T02:23:18.968Z,99.87
2022-07-31T02:27:54.259Z,100.00
2022-07-31T02:31:44.359Z,100.00
2022-07-31T02:35:48.949Z,100.00
2022-07-31T02:39:53.061Z,100.00
2022-07-31T02:43:54.917Z,100.00
2022-07-31T02:47:56.824Z,100.00
2022-07-31T02:51:58.657Z,100.00
2022-07-31T02:56:01.924Z,100.00
2022-07-31T03:00:27.180Z,100.00
2022-07-31T03:04:29.937Z,100.00
2022-07-31T03:08:31.493Z,100.00
2022-07-31T03:12:33.018Z,100.00
2022-07-31T03:16:35.888Z,100.00
2022-07-31T03:20:39.422Z,100.00
2022-07-31T03:24:41.130Z,100.00
2022-07-31T03:28:43.268Z,100.00
2022-07-31T03:32:45.466Z,100.00
2022-07-31T03:36:48.722Z,100.00
2022-07-31T03:40:50.232Z,100.00
2022-07-31T03:44:52.064Z,100.00
2022-07-31T03:48:53.821Z,100.00
2022-07-31T03:52:58.373Z,100.00
2022-07-31T03:57:00.782Z,100.00
2022-07-31T04:01:03.154Z,100.00
2022-07-31T04:05:10.219Z,100.00
2022-07-31T04:09:18.657Z,100.00
2022-07-31T04:13:20.531Z,100.00
2022-07-31T04:17:22.195Z,100.00
2022-07-31T04:21:23.635Z,100.00
2022-07-31T04:25:25.075Z,100.00
2022-07-31T04:29:28.799Z,100.00
2022-07-31T04:33:30.338Z,100.00
2022-07-31T04:37:32.855Z,100.00
2022-07-31T04:41:34.503Z,100.00
2022-07-31T04:45:36.079Z,100.00
2022-07-31T04:49:37.770Z,100.00
2022-07-31T04:53:39.291Z,100.00
2022-07-31T04:57:40.797Z,100.00
2022-07-31T05:01:43.736Z,99.42
2022-07-31T05:05:46.568Z,97.42
2022-07-31T05:09:48.304Z,96.08
2022-07-31T05:13:54.686Z,93.64
2022-07-31T05:17:56.143Z,92.34
2022-07-31T05:22:03.745Z,89.18
2022-07-31T05:26:05.775Z,88.15
2022-07-31T05:30:08.253Z,85.07
2022-07-31T05:34:09.749Z,84.08
2022-07-31T05:38:11.726Z,83.10
2022-07-31T05:42:13.375Z,82.08
2022-07-31T05:46:16.739Z,82.14
2022-07-31T05:50:18.790Z,82.04
2022-07-31T05:54:21.492Z,80.40
2022-07-31T05:58:23.225Z,81.52
2022-07-31T06:02:24.722Z,82.10
2022-07-31T06:06:27.048Z,81.61
2022-07-31T06:10:28.685Z,81.33
2022-07-31T06:14:30.185Z,79.11
2022-07-31T06:18:31.662Z,78.42
2022-07-31T06:22:33.168Z,76.72
2022-07-31T06:26:34.651Z,76.86
2022-07-31T06:30:36.183Z,76.71
2022-07-31T06:34:37.646Z,75.72
2022-07-31T06:38:39.252Z,73.93
2022-07-31T06:42:40.898Z,73.64
2022-07-31T06:46:48.708Z,71.79
2022-07-31T06:50:54.199Z,71.47
2022-07-31T06:55:01.506Z,70.37
2022-07-31T06:59:04.125Z,70.88
2022-07-31T07:03:05.700Z,69.72
2022-07-31T07:07:07.235Z,68.41
2022-07-31T07:11:12.103Z,68.62
2022-07-31T07:15:14.088Z,68.63
2022-07-31T07:19:15.608Z,68.87
2022-07-31T07:23:17.170Z,69.24
2022-07-31T07:27:18.817Z,66.69
2022-07-31T07:31:20.354Z,66.28
2022-07-31T07:35:22.093Z,67.32
2022-07-31T07:39:23.602Z,67.43
2022-07-31T07:43:25.171Z,67.56
2022-07-31T07:47:26.785Z,66.61
2022-07-31T07:52:00.011Z,65.78
2022-07-31T07:56:09.825Z,64.48
2022-07-31T08:00:15.103Z,63.56
2022-07-31T08:04:16.700Z,64.59
2022-07-31T08:08:25.984Z,63.37
2022-07-31T08:12:28.304Z,63.99
2022-07-31T08:16:32.237Z,62.18
2022-07-31T08:20:33.805Z,61.14
2022-07-31T08:24:37.943Z,60.59
2022-07-31T08:28:39.468Z,61.40
2022-07-31T08:32:41.078Z,60.00
2022-07-31T08:36:42.741Z,58.45
2022-07-31T08:40:44.858Z,58.90
2022-07-31T08:44:46.790Z,59.35
2022-07-31T08:48:53.498Z,58.47
2022-07-31T08:52:57.024Z,57.28
2022-07-31T08:56:59.350Z,58.33
2022-07-31T09:01:01.586Z,57.55
2022-07-31T09:05:05.080Z,56.25
2022-07-31T09:09:06.596Z,55.51
2022-07-31T09:13:16.007Z,55.42
2022-07-31T09:17:17.517Z,55.00
2022-07-31T09:21:19.062Z,53.62
2022-07-31T09:25:20.621Z,55.27
2022-07-31T09:29:39.879Z,53.07
2022-07-31T09:33:46.036Z,51.51
2022-07-31T09:37:48.594Z,51.70
2022-07-31T09:41:59.888Z,53.00
2022-07-31T09:46:13.034Z,51.76
2022-07-31T09:50:14.754Z,50.39
2022-07-31T09:54:21.973Z,51.15
2022-07-31T09:58:24.985Z,48.50
2022-07-31T10:02:29.687Z,48.01
2022-07-31T10:06:34.568Z,50.18
2022-07-31T10:10:37.236Z,50.21
2022-07-31T10:14:41.348Z,47.76
2022-07-31T10:18:49.593Z,47.15
2022-07-31T10:22:59.267Z,48.16
2022-07-31T10:27:07.808Z,48.65
2022-07-31T10:31:12.587Z,48.69
2022-07-31T10:35:14.689Z,48.27
2022-07-31T10:39:57.641Z,47.33
2022-07-31T10:44:03.759Z,48.78
2022-07-31T10:48:11.338Z,49.31
2022-07-31T10:52:12.913Z,48.21
2022-07-31T10:56:14.625Z,47.03
2022-07-31T11:00:20.721Z,44.98
2022-07-31T11:04:31.866Z,44.63
2022-07-31T11:08:52.164Z,47.33
2022-07-31T11:13:11.097Z,45.67
2022-07-31T11:17:12.516Z,45.81
2022-07-31T11:21:37.597Z,44.79
2022-07-31T11:25:39.050Z,42.54
2022-07-31T11:29:59.336Z,44.50
2022-07-31T11:34:04.132Z,45.83
2022-07-31T11:38:06.812Z,44.64
2022-07-31T11:42:08.270Z,41.30
2022-07-31T11:46:09.804Z,41.96
2022-07-31T11:50:13.710Z,42.01
2022-07-31T11:54:24.929Z,42.18
2022-07-31T11:58:28.756Z,40.35
2022-07-31T12:02:30.341Z,41.97
2022-07-31T12:06:34.856Z,42.81
2022-07-31T12:10:39.339Z,43.55
2022-07-31T12:14:40.849Z,45.12
2022-07-31T12:18:58.695Z,45.11
2022-07-31T12:23:01.294Z,44.84
2022-07-31T12:27:03.011Z,45.71
2022-07-31T12:31:04.729Z,46.26
2022-07-31T12:35:06.818Z,47.42
2022-07-31T12:39:11.656Z,48.06
2022-07-31T12:43:13.161Z,48.18
2022-07-31T12:47:40.698Z,48.22
2022-07-31T12:51:45.254Z,48.56
2022-07-31T12:55:48.383Z,47.86
2022-07-31T12:59:49.841Z,44.73
2022-07-31T13:03:52.285Z,41.73
2022-07-31T13:07:53.953Z,39.33
2022-07-31T13:11:57.888Z,38.52
2022-07-31T13:15:59.715Z,40.95
2022-07-31T13:20:01.275Z,41.38
2022-07-31T13:24:05.608Z,40.41
2022-07-31T13:28:07.078Z,38.70
2022-07-31T13:32:08.920Z,37.68
2022-07-31T13:36:10.882Z,39.99
2022-07-31T13:40:12.397Z,40.04
2022-07-31T13:44:13.825Z,39.99
2022-07-31T13:48:15.259Z,38.64
2022-07-31T13:52:16.649Z,37.61
2022-07-31T13:56:40.379Z,37.81
2022-07-31T14:00:41.123Z,37.89
2022-07-31T14:04:42.666Z,35.79
2022-07-31T14:08:50.015Z,35.07
2022-07-31T14:12:53.466Z,36.53
2022-07-31T14:16:54.897Z,34.53
2022-07-31T14:20:56.451Z,33.97
2022-07-31T14:24:57.935Z,32.86
2022-07-31T14:29:01.421Z,31.35
2022-07-31T14:33:05.781Z,30.11
2022-07-31T14:37:07.785Z,30.37
2022-07-31T14:41:09.526Z,29.49
2022-07-31T14:45:11.554Z,29.19
2022-07-31T14:49:13.068Z,31.29
2022-07-31T14:53:14.621Z,32.00
2022-07-31T14:57:20.222Z,31.32
2022-07-31T15:01:23.976Z,29.23
2022-07-31T15:06:43.874Z,29.49
2022-07-31T15:09:49.864Z,27.73
2022-07-31T15:13:51.329Z,32.98
2022-07-31T15:17:52.777Z,34.61
2022-07-31T15:22:10.326Z,33.47
2022-07-31T15:26:15.886Z,31.98
2022-07-31T15:30:18.314Z,32.01
2022-07-31T15:34:19.829Z,30.31
2022-07-31T15:38:21.250Z,29.04
2022-07-31T15:42:23.294Z,32.68
2022-07-31T15:46:24.974Z,33.12
2022-07-31T15:50:26.407Z,32.43
2022-07-31T15:54:27.959Z,32.08
2022-07-31T15:58:29.472Z,30.47
2022-07-31T16:02:31.018Z,28.79
2022-07-31T16:06:32.890Z,27.93
2022-07-31T16:10:35.241Z,28.13
2022-07-31T16:14:36.847Z,28.46
2022-07-31T16:18:38.366Z,30.49
2022-07-31T16:22:41.627Z,29.05
2022-07-31T16:26:43.072Z,28.94
2022-07-31T16:30:50.606Z,29.10
2022-07-31T16:34:54.994Z,29.43
2022-07-31T16:39:19.067Z,30.86
2022-07-31T16:43:49.859Z,28.93
2022-07-31T16:47:45.871Z,27.36
2022-07-31T16:51:53.307Z,29.58
2022-07-31T16:56:00.890Z,28.79
2022-07-31T17:00:04.934Z,29.48
2022-07-31T17:04:06.402Z,32.55
2022-07-31T17:08:07.932Z,32.87
2022-07-31T17:12:09.516Z,33.38
2022-07-31T17:16:11.200Z,33.42
2022-07-31T17:20:13.568Z,34.98
2022-07-31T17:24:16.713Z,36.04
2022-07-31T17:28:18.174Z,35.61
2022-07-31T17:32:22.497Z,36.47
2022-07-31T17:36:23.960Z,37.56
2022-07-31T17:40:42.596Z,37.51
2022-07-31T17:44:46.513Z,36.91
2022-07-31T17:48:50.957Z,38.30
2022-07-31T17:52:52.439Z,38.58
2022-07-31T17:56:53.894Z,37.65
2022-07-31T18:00:55.563Z,39.13
2022-07-31T18:04:57.053Z,39.24
2022-07-31T18:08:58.854Z,39.56
2022-07-31T18:13:00.312Z,38.12
2022-07-31T18:17:02.056Z,36.65
2022-07-31T18:21:03.985Z,37.89
2022-07-31T18:25:07.494Z,39.30
2022-07-31T18:29:09.230Z,39.81
2022-07-31T18:33:12.626Z,39.14
2022-07-31T18:37:15.924Z,39.15
2022-07-31T18:41:17.662Z,38.82
2022-07-31T18:45:19.129Z,39.33
2022-07-31T18:50:59.298Z,40.07
2022-07-31T18:53:42.207Z,40.86
2022-07-31T18:57:44.082Z,41.15
2022-07-31T19:01:45.825Z,40.71
2022-07-31T19:05:49.486Z,41.61
2022-07-31T19:09:51.186Z,42.02
2022-07-31T19:13:52.623Z,42.62
2022-07-31T19:17:58.511Z,42.72
2022-07-31T19:22:00.290Z,44.21
2022-07-31T19:26:08.796Z,43.89
2022-07-31T19:30:10.824Z,43.57
2022-07-31T19:34:13.876Z,44.31
2022-07-31T19:38:15.461Z,44.71
2022-07-31T19:42:17.051Z,45.23
2022-07-31T19:46:18.774Z,45.78
2022-07-31T19:50:20.486Z,46.15
2022-07-31T19:54:22.157Z,47.07
2022-07-31T19:58:23.755Z,46.82
2022-07-31T20:02:26.135Z,48.05
2022-07-31T20:06:28.904Z,47.81
2022-07-31T20:10:30.502Z,48.16
2022-07-31T20:14:31.934Z,49.07
2022-07-31T20:18:33.639Z,47.35
2022-07-31T20:22:35.183Z,47.73
2022-07-31T20:26:36.647Z,49.63
2022-07-31T20:30:38.066Z,49.75
2022-07-31T20:34:39.579Z,49.60
2022-07-31T20:38:41.079Z,49.51
2022-07-31T20:42:42.534Z,50.38
2022-07-31T20:46:45.177Z,49.92
2022-07-31T20:50:47.878Z,48.83
2022-07-31T20:54:49.977Z,50.81
2022-07-31T20:58:52.096Z,52.33
2022-07-31T21:02:53.803Z,51.53
2022-07-31T21:06:55.276Z,46.49
2022-07-31T21:10:57.041Z,48.36
2022-07-31T21:15:02.725Z,43.63
2022-07-31T21:19:08.403Z,47.04
2022-07-31T21:23:11.829Z,48.17
2022-07-31T21:27:15.717Z,47.48
2022-07-31T21:31:17.450Z,47.50
2022-07-31T21:35:37.331Z,47.58
2022-07-31T21:39:39.433Z,47.67
2022-07-31T21:43:58.944Z,48.10
2022-07-31T21:48:11.956Z,48.83
2022-07-31T21:52:13.575Z,49.00
2022-07-31T21:56:16.182Z,50.19
2022-07-31T22:00:17.786Z,49.25
2022-07-31T22:04:34.457Z,49.39
2022-07-31T22:08:36.570Z,50.00
2022-07-31T22:12:38.087Z,50.81
2022-07-31T22:16:39.666Z,50.88
2022-07-31T22:20:41.530Z,50.82
2022-07-31T22:24:43.191Z,52.48
2022-07-31T22:28:46.372Z,54.08
2022-07-31T22:32:53.126Z,55.04
2022-07-31T22:36:55.113Z,55.19
2022-07-31T22:41:00.730Z,56.04
2022-07-31T22:45:02.461Z,56.66
2022-07-31T22:49:06.032Z,56.57
2022-07-31T22:53:07.613Z,57.29
2022-07-31T22:57:09.113Z,56.71
2022-07-31T23:01:10.550Z,56.77
2022-07-31T23:05:12.042Z,56.71
2022-07-31T23:09:13.592Z,57.06
2022-07-31T23:13:15.091Z,57.64
2022-07-31T23:17:22.408Z,59.38
2022-07-31T23:21:25.009Z,60.56
2022-07-31T23:25:26.508Z,61.21
2022-07-31T23:29:27.961Z,63.00
2022-07-31T23:33:29.393Z,63.18
2022-07-31T23:37:30.865Z,64.98
2022-07-31T23:41:50.976Z,64.64
2022-07-31T23:45:52.457Z,64.92
2022-07-31T23:49:55.062Z,65.37
2022-07-31T23:53:56.897Z,66.38
2022-07-31T23:57:58.359Z,66.48
